createdAt,value
2022-10-17T00:01:21.625Z,10.48
2022-10-17T00:03:47.779Z,10.48
2022-10-17T00:06:15.057Z,10.52
2022-10-17T00:08:42.497Z,10.58
2022-10-17T00:11:14.169Z,10.61
2022-10-17T00:13:41.971Z,10.64
2022-10-17T00:16:08.815Z,10.69
2022-10-17T00:18:34.902Z,10.73
2022-10-17T00:21:00.987Z,10.78
2022-10-17T00:23:30.572Z,10.80
2022-10-17T00:26:01.039Z,10.84
2022-10-17T00:28:27.200Z,10.90
2022-10-17T00:30:56.872Z,10.92
2022-10-17T00:33:22.973Z,10.97
2022-10-17T00:35:49.060Z,11.03
2022-10-17T00:38:15.156Z,11.06
2022-10-17T00:40:41.248Z,11.10
2022-10-17T00:43:16.810Z,11.13
2022-10-17T00:45:42.882Z,11.13
2022-10-17T00:48:12.459Z,10.99
2022-10-17T00:50:42.002Z,10.98
2022-10-17T00:53:09.466Z,11.03
2022-10-17T00:55:42.364Z,11.12
2022-10-17T00:58:08.630Z,11.12
2022-10-17T01:00:34.728Z,11.05
2022-10-17T01:03:00.837Z,10.97
2022-10-17T01:05:26.996Z,10.90
2022-10-17T01:07:55.016Z,10.87
2022-10-17T01:13:11.632Z,10.88
2022-10-17T01:15:44.306Z,10.88
2022-10-17T01:18:22.645Z,10.89
2022-10-17T01:21:13.144Z,10.93
2022-10-17T01:23:58.372Z,10.95
2022-10-17T01:26:51.939Z,10.95
2022-10-17T01:29:33.027Z,10.95
2022-10-17T01:32:03.814Z,10.90
2022-10-17T01:34:47.152Z,10.79
2022-10-17T01:37:21.475Z,10.71
2022-10-17T01:40:03.139Z,10.64
2022-10-17T01:42:48.633Z,10.64
2022-10-17T01:45:31.956Z,10.64
2022-10-17T01:48:05.862Z,10.64
2022-10-17T01:50:37.936Z,10.71
2022-10-17T01:53:14.691Z,10.65
2022-10-17T01:55:44.293Z,10.58
2022-10-17T01:58:15.063Z,10.52
2022-10-17T02:00:45.319Z,10.42
2022-10-17T02:03:18.222Z,10.35
2022-10-17T02:05:45.721Z,10.27
2022-10-17T02:08:12.420Z,10.25
2022-10-17T02:10:53.742Z,10.18
2022-10-17T02:13:35.102Z,10.14
2022-10-17T02:16:16.159Z,10.09
2022-10-17T02:19:08.816Z,10.06
2022-10-17T02:21:46.527Z,10.02
2022-10-17T02:24:37.478Z,9.98
2022-10-17T02:27:17.182Z,9.96
2022-10-17T02:29:57.326Z,9.94
2022-10-17T02:32:46.656Z,9.93
2022-10-17T02:35:16.023Z,9.93
2022-10-17T02:37:45.432Z,9.93
2022-10-17T02:40:14.525Z,9.91
2022-10-17T02:42:43.871Z,9.89
2022-10-17T02:45:10.724Z,9.87
2022-10-17T02:47:49.562Z,9.89
2022-10-17T02:50:15.757Z,9.89
2022-10-17T02:52:58.055Z,9.90
2022-10-17T02:55:33.509Z,9.89
2022-10-17T02:58:02.667Z,9.89
2022-10-17T03:00:29.852Z,9.90
2022-10-17T03:02:56.028Z,9.91
2022-10-17T03:05:24.906Z,9.97
2022-10-17T03:07:51.620Z,10.05
2022-10-17T03:10:18.548Z,10.11
2022-10-17T03:12:44.765Z,10.16
2022-10-17T03:15:12.509Z,10.23
2022-10-17T03:17:39.844Z,10.25
2022-10-17T03:20:07.750Z,10.26
2022-10-17T03:22:34.103Z,10.34
2022-10-17T03:25:02.365Z,10.43
2022-10-17T03:27:28.754Z,10.50
2022-10-17T03:29:55.592Z,10.52
2022-10-17T03:32:21.677Z,10.55
2022-10-17T03:34:48.022Z,10.56
2022-10-17T03:37:14.101Z,10.56
2022-10-17T03:39:41.356Z,10.58
2022-10-17T03:42:07.512Z,10.58
2022-10-17T03:44:33.634Z,10.58
2022-10-17T03:46:59.744Z,10.60
2022-10-17T03:49:25.870Z,10.69
2022-10-17T03:51:52.666Z,10.78
2022-10-17T03:54:18.956Z,10.86
2022-10-17T03:56:45.079Z,10.93
2022-10-17T03:59:15.302Z,11.01
2022-10-17T04:01:44.897Z,11.02
2022-10-17T04:04:12.187Z,11.01
2022-10-17T04:06:38.664Z,10.99
2022-10-17T04:09:07.119Z,10.95
2022-10-17T04:11:40.919Z,10.94
2022-10-17T04:14:07.454Z,10.91
2022-10-17T04:16:33.576Z,10.89
2022-10-17T04:19:04.186Z,10.82
2022-10-17T04:21:36.120Z,10.79
2022-10-17T04:24:05.993Z,10.75
2022-10-17T04:26:56.932Z,10.74
2022-10-17T04:29:26.970Z,10.73
2022-10-17T04:32:00.399Z,10.68
2022-10-17T04:34:34.911Z,10.65
2022-10-17T04:37:01.033Z,10.63
2022-10-17T04:39:27.343Z,10.63
2022-10-17T04:41:55.614Z,10.60
2022-10-17T04:44:21.972Z,10.60
2022-10-17T04:46:51.076Z,10.57
2022-10-17T04:49:17.225Z,10.58
2022-10-17T04:51:46.612Z,10.60
2022-10-17T04:54:22.274Z,10.60
2022-10-17T04:56:54.322Z,10.59
2022-10-17T04:59:20.531Z,10.57
2022-10-17T05:01:52.334Z,10.55
2022-10-17T05:04:22.364Z,10.53
2022-10-17T05:06:50.908Z,10.50
2022-10-17T05:09:33.222Z,10.47
2022-10-17T05:11:59.756Z,10.49
2022-10-17T05:14:26.698Z,10.48
2022-10-17T05:16:52.805Z,10.45
2022-10-17T05:19:19.308Z,10.44
2022-10-17T05:21:48.639Z,10.42
2022-10-17T05:24:15.261Z,10.42
2022-10-17T05:26:41.354Z,10.39
2022-10-17T05:29:08.227Z,10.40
2022-10-17T05:31:39.140Z,10.40
2022-10-17T05:34:09.066Z,10.41
2022-10-17T05:36:37.880Z,10.40
2022-10-17T05:39:05.187Z,10.40
2022-10-17T05:41:33.203Z,10.41
2022-10-17T05:44:01.800Z,10.43
2022-10-17T05:46:39.573Z,10.42
2022-10-17T05:49:19.411Z,10.40
2022-10-17T05:51:52.196Z,10.39
2022-10-17T05:54:18.450Z,10.41
2022-10-17T05:56:45.054Z,10.40
2022-10-17T05:59:11.275Z,10.41
2022-10-17T06:02:12.494Z,10.49
2022-10-17T06:04:38.709Z,10.54
2022-10-17T06:07:05.734Z,10.62
2022-10-17T06:09:32.972Z,10.71
2022-10-17T06:11:59.130Z,10.78
2022-10-17T06:14:25.246Z,10.86
2022-10-17T06:16:55.484Z,10.95
2022-10-17T06:19:21.611Z,11.05
2022-10-17T06:21:47.694Z,11.16
2022-10-17T06:24:18.996Z,11.25
2022-10-17T06:26:47.003Z,11.37
2022-10-17T06:29:15.000Z,11.45
2022-10-17T06:31:45.747Z,11.55
2022-10-17T06:34:11.843Z,11.65
2022-10-17T06:36:39.404Z,11.74
2022-10-17T06:39:05.990Z,11.81
2022-10-17T06:41:44.548Z,11.90
2022-10-17T06:44:11.658Z,11.98
2022-10-17T06:46:54.354Z,12.04
2022-10-17T06:49:21.694Z,12.07
2022-10-17T06:51:56.176Z,12.14
2022-10-17T06:54:30.507Z,12.22
2022-10-17T06:57:16.955Z,12.27
2022-10-17T07:00:06.515Z,12.36
2022-10-17T07:02:43.902Z,12.45
2022-10-17T07:05:10.139Z,12.55
2022-10-17T07:07:40.017Z,12.70
2022-10-17T07:10:09.444Z,12.80
2022-10-17T07:12:36.755Z,12.93
2022-10-17T07:15:05.009Z,13.09
2022-10-17T07:17:31.936Z,13.24
2022-10-17T07:19:58.313Z,13.37
2022-10-17T07:22:25.060Z,13.48
2022-10-17T07:24:54.523Z,13.61
2022-10-17T07:27:27.546Z,13.70
2022-10-17T07:29:53.928Z,13.84
2022-10-17T07:32:32.104Z,13.96
2022-10-17T07:34:59.025Z,14.08
2022-10-17T07:37:25.306Z,14.17
2022-10-17T07:39:56.563Z,14.27
2022-10-17T07:42:23.176Z,14.38
2022-10-17T07:44:49.862Z,14.43
2022-10-17T07:47:16.025Z,14.49
2022-10-17T07:49:44.206Z,14.50
2022-10-17T07:52:12.033Z,14.55
2022-10-17T07:54:38.396Z,14.61
2022-10-17T07:57:04.614Z,14.65
2022-10-17T07:59:30.695Z,14.68
2022-10-17T08:01:56.970Z,14.73
2022-10-17T08:04:23.722Z,14.79
2022-10-17T08:06:53.387Z,14.85
2022-10-17T08:09:22.607Z,14.89
2022-10-17T08:11:49.131Z,14.90
2022-10-17T08:14:16.832Z,14.98
2022-10-17T08:16:43.626Z,15.06
2022-10-17T08:19:11.517Z,15.14
2022-10-17T08:21:38.738Z,15.14
2022-10-17T08:24:05.156Z,15.18
2022-10-17T08:26:31.249Z,15.24
2022-10-17T08:28:57.690Z,15.30
2022-10-17T08:31:23.831Z,15.41
2022-10-17T08:33:50.430Z,15.45
2022-10-17T08:36:19.157Z,15.51
2022-10-17T08:38:47.980Z,15.56
2022-10-17T08:42:08.834Z,15.67
2022-10-17T08:44:48.166Z,15.79
2022-10-17T08:47:21.058Z,15.86
2022-10-17T08:49:54.024Z,16.02
2022-10-17T08:52:41.618Z,16.10
2022-10-17T08:57:48.460Z,16.19
2022-10-17T09:00:21.307Z,16.22
2022-10-17T09:03:09.831Z,16.33
2022-10-17T09:05:49.366Z,16.45
2022-10-17T09:08:53.055Z,16.54
2022-10-17T09:11:53.283Z,16.65
2022-10-17T09:14:41.143Z,16.77
2022-10-17T09:17:21.551Z,16.81
2022-10-17T09:20:03.264Z,16.98
2022-10-17T09:22:37.647Z,17.05
2022-10-17T09:25:10.813Z,17.11
2022-10-17T09:27:42.864Z,17.22
2022-10-17T09:30:44.158Z,17.30
2022-10-17T09:33:34.765Z,17.41
2022-10-17T09:36:13.193Z,17.56
2022-10-17T09:38:43.082Z,17.70
2022-10-17T09:41:42.987Z,17.82
2022-10-17T09:44:22.889Z,17.91
2022-10-17T13:59:22.870Z,22.15
2022-10-17T14:01:49.983Z,22.24
2022-10-17T14:04:20.112Z,22.31
2022-10-17T14:06:51.108Z,22.29
2022-10-17T14:09:28.546Z,22.38
2022-10-17T14:12:02.373Z,22.37
2022-10-17T14:14:32.175Z,22.35
2022-10-17T14:17:13.555Z,22.33
2022-10-17T14:19:39.842Z,22.27
2022-10-17T14:22:36.275Z,22.31
2022-10-17T14:25:03.934Z,22.34
2022-10-17T14:27:36.651Z,22.40
2022-10-17T14:33:22.008Z,22.44
2022-10-17T14:35:56.365Z,22.49
2022-10-17T14:38:23.481Z,22.54
2022-10-17T14:41:08.729Z,22.56
2022-10-17T14:43:42.703Z,22.58
2022-10-17T14:46:15.819Z,22.60
2022-10-17T14:48:42.362Z,22.72
2022-10-17T14:51:17.375Z,22.73
2022-10-17T14:53:44.930Z,22.72
2022-10-17T14:56:25.853Z,22.71
2022-10-17T14:58:52.249Z,22.67
2022-10-17T15:01:19.063Z,22.61
2022-10-17T15:03:45.523Z,22.46
2022-10-17T15:06:20.587Z,22.28
2022-10-17T15:08:46.727Z,22.05
2022-10-17T15:11:12.844Z,21.82
2022-10-17T15:13:42.260Z,21.61
2022-10-17T15:16:34.970Z,21.40
2022-10-17T15:19:01.174Z,21.23
2022-10-17T15:21:39.298Z,21.06
2022-10-17T15:24:06.854Z,20.88
2022-10-17T15:26:34.300Z,20.68
2022-10-17T15:29:00.846Z,20.55
2022-10-17T15:31:29.258Z,20.42
2022-10-17T15:33:55.356Z,20.29
2022-10-17T15:36:28.963Z,20.17
2022-10-17T15:39:00.703Z,20.01
2022-10-17T15:41:29.026Z,19.93
2022-10-17T15:43:55.271Z,19.80
2022-10-17T15:46:25.273Z,19.64
2022-10-17T15:48:51.752Z,19.50
2022-10-17T15:51:18.400Z,19.33
2022-10-17T15:53:44.611Z,19.23
2022-10-17T15:56:22.954Z,19.04
2022-10-17T15:58:49.474Z,18.92
2022-10-17T16:01:24.402Z,18.80
2022-10-17T16:03:50.910Z,18.70
2022-10-17T16:06:21.126Z,18.60
2022-10-17T16:08:48.352Z,18.47
2022-10-17T16:11:26.412Z,18.34
2022-10-17T16:13:55.066Z,18.19
2022-10-17T16:16:22.548Z,18.07
2022-10-17T16:18:49.177Z,17.96
2022-10-17T16:21:16.765Z,17.85
2022-10-17T16:23:43.753Z,17.79
2022-10-17T16:26:10.057Z,17.73
2022-10-17T16:28:36.338Z,17.70
2022-10-17T16:31:02.585Z,17.64
2022-10-17T16:33:28.676Z,17.52
2022-10-17T16:35:54.787Z,17.43
2022-10-17T16:38:20.879Z,17.32
2022-10-17T16:40:46.968Z,17.28
2022-10-17T16:43:13.303Z,17.20
2022-10-17T16:45:40.012Z,17.15
2022-10-17T16:48:06.472Z,17.06
2022-10-17T16:50:35.619Z,16.97
2022-10-17T16:53:03.961Z,16.92
2022-10-17T16:55:30.052Z,16.85
2022-10-17T16:57:56.149Z,16.78
2022-10-17T17:00:22.320Z,16.75
2022-10-17T17:02:48.753Z,16.68
2022-10-17T17:05:15.576Z,16.65
2022-10-17T17:07:41.688Z,16.58
2022-10-17T17:10:08.176Z,16.55
2022-10-17T17:12:35.394Z,16.52
2022-10-17T17:15:02.033Z,16.51
2022-10-17T17:17:44.526Z,16.52
2022-10-17T17:20:14.350Z,16.48
2022-10-17T17:22:40.448Z,16.47
2022-10-17T17:25:06.775Z,16.46
2022-10-17T17:27:33.316Z,16.42
2022-10-17T17:29:59.543Z,16.38
2022-10-17T17:32:25.637Z,16.39
2022-10-17T17:34:51.745Z,16.38
2022-10-17T17:37:18.005Z,16.35
2022-10-17T17:39:44.314Z,16.33
2022-10-17T17:42:10.406Z,16.28
2022-10-17T17:44:36.513Z,16.25
2022-10-17T17:47:02.661Z,16.24
2022-10-17T17:49:28.761Z,16.21
2022-10-17T17:51:54.897Z,16.11
2022-10-17T17:54:21.005Z,16.03
2022-10-17T17:56:47.195Z,15.98
2022-10-17T17:59:13.688Z,15.90
2022-10-17T18:01:40.518Z,15.81
2022-10-17T18:04:08.935Z,15.75
2022-10-17T18:06:36.102Z,15.75
2022-10-17T18:09:02.284Z,15.74
2022-10-17T18:11:28.718Z,15.75
2022-10-17T18:13:59.855Z,15.70
2022-10-17T18:16:27.865Z,15.67
2022-10-17T18:18:54.124Z,15.58
2022-10-17T18:21:20.492Z,15.52
2022-10-17T18:23:48.068Z,15.47
2022-10-17T18:26:14.714Z,15.40
2022-10-17T18:31:36.196Z,15.29
2022-10-17T18:34:03.787Z,15.28
2022-10-17T18:36:31.231Z,15.27
2022-10-17T18:38:58.859Z,15.25
2022-10-17T18:41:26.797Z,15.23
2022-10-17T18:43:54.778Z,15.17
2022-10-17T18:46:25.919Z,15.13
2022-10-17T18:48:52.764Z,15.09
2022-10-17T18:51:21.440Z,15.03
2022-10-17T18:53:51.540Z,14.96
2022-10-17T18:56:19.028Z,14.91
2022-10-17T18:58:45.955Z,14.85
2022-10-17T19:01:15.621Z,14.78
2022-10-17T19:03:43.170Z,14.75
2022-10-17T19:06:11.325Z,14.68
2022-10-17T19:08:38.652Z,14.64
2022-10-17T19:11:10.651Z,14.63
2022-10-17T19:13:37.510Z,14.57
2022-10-17T19:16:08.680Z,14.59
2022-10-17T19:18:35.971Z,14.56
2022-10-17T19:21:08.054Z,14.51
2022-10-17T19:23:37.540Z,14.45
2022-10-17T19:26:05.687Z,14.37
2022-10-17T19:28:32.832Z,14.33
2022-10-17T19:30:59.020Z,14.31
2022-10-17T19:33:25.290Z,14.27
2022-10-17T19:35:56.319Z,14.26
2022-10-17T19:38:22.406Z,14.23
2022-10-17T19:40:48.599Z,14.18
2022-10-17T19:43:14.709Z,14.13
2022-10-17T19:45:40.814Z,14.09
2022-10-17T19:48:06.899Z,14.06
2022-10-17T19:50:34.148Z,14.02
2022-10-17T19:53:02.082Z,14.01
2022-10-17T19:55:28.285Z,13.99
2022-10-17T19:58:02.043Z,13.95
2022-10-17T20:00:28.423Z,13.90
2022-10-17T20:02:54.946Z,13.87
2022-10-17T20:05:23.703Z,13.80
2022-10-17T20:07:52.128Z,13.77
2022-10-17T20:10:19.003Z,13.74
2022-10-17T20:12:45.093Z,13.73
2022-10-17T20:15:11.229Z,13.74
2022-10-17T20:17:37.326Z,13.75
2022-10-17T20:20:08.579Z,13.73
2022-10-17T20:22:35.051Z,13.68
2022-10-17T20:25:01.146Z,13.64
2022-10-17T20:27:28.232Z,13.59
2022-10-17T20:29:54.341Z,13.52
2022-10-17T20:32:20.432Z,13.50
2022-10-17T20:34:46.529Z,13.45
2022-10-17T20:37:12.639Z,13.40
2022-10-17T20:39:39.104Z,13.38
2022-10-17T20:42:05.196Z,13.34
2022-10-17T20:44:31.306Z,13.29
2022-10-17T20:47:02.180Z,13.25
2022-10-17T20:49:30.870Z,13.21
2022-10-17T20:51:57.114Z,13.17
2022-10-17T20:54:23.371Z,13.13
2022-10-17T20:56:49.940Z,13.10
2022-10-17T20:59:17.311Z,13.10
2022-10-17T21:01:45.177Z,13.05
2022-10-17T21:04:40.502Z,13.02
2022-10-17T21:06:57.873Z,12.96
2022-10-17T21:09:24.258Z,12.94
2022-10-17T21:11:54.293Z,12.91
2022-10-17T21:14:21.164Z,12.86
2022-10-17T21:16:47.950Z,12.83
2022-10-17T21:19:15.020Z,12.80
2022-10-17T21:21:43.509Z,12.77
2022-10-17T21:24:14.600Z,12.73
2022-10-17T21:26:42.536Z,12.70
2022-10-17T21:29:09.846Z,12.67
2022-10-17T21:31:37.866Z,12.63
2022-10-17T21:34:09.186Z,12.60
2022-10-17T21:36:35.563Z,12.59
2022-10-17T21:39:01.930Z,12.56
2022-10-17T21:41:29.511Z,12.54
2022-10-17T21:43:59.488Z,12.51
2022-10-17T21:46:26.267Z,12.49
2022-10-17T21:48:52.897Z,12.47
2022-10-17T21:51:21.892Z,12.47
2022-10-17T21:53:48.346Z,12.48
2022-10-17T21:56:17.449Z,12.47
2022-10-17T21:58:44.116Z,12.46
2022-10-17T22:01:13.436Z,12.46
2022-10-17T22:03:45.694Z,12.43
2022-10-17T22:09:01.903Z,12.36
2022-10-17T22:11:30.563Z,12.33
2022-10-17T22:14:02.126Z,12.30
2022-10-17T22:16:28.779Z,12.27
2022-10-17T22:19:00.515Z,12.25
2022-10-17T22:21:29.418Z,12.23
2022-10-17T22:24:01.973Z,12.20
2022-10-17T22:26:29.472Z,12.18
2022-10-17T22:28:56.326Z,12.17
2022-10-17T22:31:22.743Z,12.17
2022-10-17T22:33:49.222Z,12.15
2022-10-17T22:36:15.337Z,12.14
2022-10-17T22:38:41.526Z,12.13
2022-10-17T22:41:08.760Z,12.16
2022-10-17T22:43:35.111Z,12.18
2022-10-17T22:46:03.700Z,12.16
2022-10-17T22:48:30.218Z,12.18
2022-10-17T22:50:57.967Z,12.21
2022-10-17T22:53:26.250Z,12.23
2022-10-17T22:56:09.705Z,12.25
2022-10-17T22:58:36.344Z,12.22
2022-10-17T23:01:03.363Z,12.23
2022-10-17T23:03:30.597Z,12.27
2022-10-17T23:05:56.895Z,12.31
2022-10-17T23:08:23.931Z,12.33
2022-10-17T23:10:50.112Z,12.34
2022-10-17T23:13:16.739Z,12.39
2022-10-17T23:15:43.434Z,12.43
2022-10-17T23:18:10.099Z,12.45
2022-10-17T23:20:37.216Z,12.48
2022-10-17T23:23:03.590Z,12.53
2022-10-17T23:25:29.688Z,12.55
2022-10-17T23:27:55.789Z,12.60
2022-10-17T23:30:22.017Z,12.68
2022-10-17T23:32:48.107Z,12.75
2022-10-17T23:35:14.338Z,12.83
2022-10-17T23:37:40.436Z,12.86
2022-10-17T23:40:07.782Z,12.91
2022-10-17T23:42:33.866Z,12.94
2022-10-17T23:45:00.063Z,13.01
2022-10-17T23:47:26.243Z,13.03
2022-10-17T23:49:52.347Z,13.07
2022-10-17T23:52:18.483Z,13.13
2022-10-17T23:54:44.671Z,13.15
2022-10-17T23:57:10.829Z,13.18
2022-10-17T23:59:36.996Z,13.24
